createdAt,value
2017-11-01T00:01:33.486Z,87.77
2017-11-01T00:04:01.765Z,87.79
2017-11-01T00:06:30.048Z,87.50
2017-11-01T00:08:58.317Z,87.95
2017-11-01T00:11:26.598Z,88.03
2017-11-01T00:13:54.876Z,88.07
2017-11-01T00:16:27.992Z,88.29
2017-11-01T00:18:56.264Z,88.31
2017-11-01T00:21:24.551Z,88.53
2017-11-01T00:23:53.595Z,88.83
2017-11-01T00:26:21.854Z,88.92
2017-11-01T00:28:50.890Z,89.15
2017-11-01T00:31:19.147Z,89.09
2017-11-01T00:33:47.414Z,89.05
2017-11-01T00:36:15.692Z,89.60
2017-11-01T00:38:43.972Z,89.61
2017-11-01T00:41:12.244Z,89.68
2017-11-01T00:43:40.533Z,90.06
2017-11-01T00:46:08.809Z,89.36
2017-11-01T00:48:37.076Z,89.46
2017-11-01T00:51:05.357Z,89.70
2017-11-01T00:53:33.624Z,90.61
2017-11-01T00:56:01.916Z,90.86
2017-11-01T00:58:30.292Z,90.47
2017-11-01T01:00:59.558Z,90.98
2017-11-01T01:03:27.841Z,91.24
2017-11-01T01:05:56.112Z,91.39
2017-11-01T01:08:25.456Z,91.52
2017-11-01T01:10:53.761Z,91.37
2017-11-01T01:13:22.045Z,91.32
2017-11-01T01:15:51.077Z,91.44
2017-11-01T01:18:19.353Z,90.99
2017-11-01T01:20:47.628Z,91.96
2017-11-01T01:23:15.887Z,91.45
2017-11-01T01:25:44.599Z,91.19
2017-11-01T01:28:12.870Z,91.56
2017-11-01T01:30:41.136Z,91.82
2017-11-01T01:33:09.400Z,91.79
2017-11-01T01:35:37.664Z,91.58
2017-11-01T01:38:06.841Z,91.15
2017-11-01T01:40:35.112Z,91.26
2017-11-01T01:43:04.168Z,92.00
2017-11-01T01:45:32.444Z,91.66
2017-11-01T01:48:00.731Z,91.99
2017-11-01T01:50:29.009Z,91.81
2017-11-01T01:52:57.276Z,91.76
2017-11-01T01:55:25.559Z,92.24
2017-11-01T01:57:53.836Z,91.60
2017-11-01T02:00:22.120Z,91.94
2017-11-01T02:02:50.392Z,91.20
2017-11-01T02:05:18.673Z,91.03
2017-11-01T02:07:46.956Z,91.69
2017-11-01T02:10:15.224Z,91.32
2017-11-01T02:12:43.497Z,91.07
2017-11-01T02:15:12.990Z,91.78
2017-11-01T02:17:41.259Z,91.69
2017-11-01T02:20:09.528Z,92.02
2017-11-01T02:22:37.827Z,91.78
2017-11-01T02:25:06.096Z,91.64
2017-11-01T02:27:34.374Z,91.36
2017-11-01T02:30:02.653Z,91.91
2017-11-01T02:32:30.936Z,92.41
2017-11-01T02:34:59.204Z,92.14
2017-11-01T02:37:27.481Z,92.46
2017-11-01T02:39:55.795Z,92.62
2017-11-01T02:42:24.074Z,93.53
2017-11-01T02:44:52.364Z,93.37
2017-11-01T02:47:20.637Z,94.18
2017-11-01T02:49:48.910Z,93.52
2017-11-01T02:52:18.829Z,93.15
2017-11-01T02:54:47.113Z,93.13
2017-11-01T02:57:15.394Z,93.86
2017-11-01T02:59:43.676Z,93.56
2017-11-01T03:02:11.945Z,92.92
2017-11-01T03:04:40.228Z,93.04
2017-11-01T03:07:08.498Z,93.16
2017-11-01T03:09:36.780Z,93.26
2017-11-01T03:12:05.053Z,93.62
2017-11-01T03:14:33.328Z,93.82
2017-11-01T03:17:01.662Z,93.87
2017-11-01T03:19:29.923Z,94.62
2017-11-01T03:21:58.196Z,93.69
2017-11-01T03:24:26.478Z,93.58
2017-11-01T03:26:54.762Z,94.00
2017-11-01T03:29:23.044Z,93.36
2017-11-01T03:31:51.310Z,93.53
2017-11-01T03:34:19.560Z,93.42
2017-11-01T03:36:47.839Z,93.25
2017-11-01T03:39:16.111Z,93.95
2017-11-01T03:41:44.384Z,93.48
2017-11-01T03:44:12.676Z,93.59
2017-11-01T03:46:40.948Z,93.46
2017-11-01T03:49:09.223Z,93.77
2017-11-01T03:51:37.492Z,93.25
2017-11-01T03:54:05.771Z,93.23
2017-11-01T03:56:34.045Z,93.27
2017-11-01T03:59:02.321Z,94.02
2017-11-01T04:01:30.605Z,93.44
2017-11-01T04:03:58.876Z,93.39
2017-11-01T04:06:27.162Z,92.26
2017-11-01T04:08:55.437Z,92.11
2017-11-01T04:11:23.721Z,92.14
2017-11-01T04:13:52.005Z,91.87
2017-11-01T04:16:21.339Z,91.55
2017-11-01T04:18:54.984Z,91.57
2017-11-01T04:21:23.264Z,91.98
2017-11-01T04:23:51.541Z,91.81
2017-11-01T04:26:19.857Z,91.52
2017-11-01T04:28:48.932Z,91.19
2017-11-01T04:31:17.217Z,90.88
2017-11-01T04:33:45.500Z,90.75
2017-11-01T04:36:15.245Z,90.60
2017-11-01T04:38:43.536Z,91.37
2017-11-01T04:41:11.845Z,91.74
2017-11-01T04:43:40.137Z,92.04
2017-11-01T04:46:08.409Z,92.70
2017-11-01T04:48:38.477Z,92.49
2017-11-01T04:51:10.488Z,92.62
2017-11-01T04:53:40.331Z,92.55
2017-11-01T04:56:10.236Z,91.98
2017-11-01T04:58:39.283Z,92.03
2017-11-01T05:01:07.564Z,91.66
2017-11-01T05:03:35.849Z,91.60
2017-11-01T05:06:04.146Z,92.36
2017-11-01T05:08:38.221Z,91.90
2017-11-01T05:11:09.356Z,91.81
2017-11-01T05:13:43.099Z,92.71
2017-11-01T05:16:11.380Z,93.66
2017-11-01T05:18:40.419Z,93.40
2017-11-01T05:21:11.700Z,93.36
2017-11-01T05:23:42.860Z,93.10
2017-11-01T05:26:11.134Z,92.44
2017-11-01T05:28:39.443Z,92.56
2017-11-01T05:31:09.105Z,92.19
2017-11-01T05:33:38.077Z,92.29
2017-11-01T05:36:06.361Z,93.81
2017-11-01T05:38:34.636Z,93.36
2017-11-01T05:41:02.907Z,93.25
2017-11-01T05:43:31.187Z,93.26
2017-11-01T05:45:59.465Z,93.36
2017-11-01T05:48:27.749Z,93.57
2017-11-01T05:50:56.033Z,93.44
2017-11-01T05:53:24.324Z,92.78
2017-11-01T05:55:52.605Z,92.49
2017-11-01T05:58:20.900Z,92.40
2017-11-01T06:00:49.232Z,91.71
2017-11-01T06:03:17.515Z,91.24
2017-11-01T06:05:45.832Z,90.46
2017-11-01T06:08:16.905Z,90.50
2017-11-01T06:10:45.181Z,89.98
2017-11-01T06:13:13.461Z,89.67
2017-11-01T06:15:41.741Z,89.62
2017-11-01T06:18:10.030Z,89.72
2017-11-01T06:20:38.310Z,89.50
2017-11-01T06:23:06.604Z,89.47
2017-11-01T06:25:34.898Z,90.00
2017-11-01T06:28:03.947Z,89.56
2017-11-01T06:30:32.233Z,89.43
2017-11-01T06:33:00.521Z,89.83
2017-11-01T06:35:28.811Z,90.00
2017-11-01T06:37:57.145Z,90.39
2017-11-01T06:40:25.431Z,90.66
2017-11-01T06:42:53.708Z,91.15
2017-11-01T06:45:21.989Z,90.94
2017-11-01T06:47:50.264Z,91.07
2017-11-01T06:50:18.544Z,91.85
2017-11-01T06:52:46.876Z,91.67
2017-11-01T06:55:15.152Z,91.27
2017-11-01T06:57:43.435Z,91.78
2017-11-01T07:00:11.716Z,91.54
2017-11-01T07:02:43.797Z,91.57
2017-11-01T07:05:14.786Z,91.43
2017-11-01T07:07:43.820Z,91.16
2017-11-01T07:10:12.085Z,90.58
2017-11-01T07:12:40.365Z,90.88
2017-11-01T07:15:08.639Z,90.96
2017-11-01T07:17:36.916Z,92.41
2017-11-01T07:20:05.192Z,91.72
2017-11-01T07:22:33.495Z,91.65
2017-11-01T07:25:01.772Z,91.67
2017-11-01T07:27:30.048Z,91.15
2017-11-01T07:29:58.329Z,90.49
2017-11-01T07:32:26.600Z,90.54
2017-11-01T07:34:54.873Z,90.52
2017-11-01T07:37:23.511Z,90.36
2017-11-01T07:39:51.904Z,91.11
2017-11-01T07:42:20.184Z,90.65
2017-11-01T07:44:48.460Z,90.88
2017-11-01T07:47:16.737Z,91.00
2017-11-01T07:49:45.013Z,90.86
2017-11-01T07:52:13.292Z,90.34
2017-11-01T07:54:41.560Z,90.62
2017-11-01T07:57:09.841Z,90.79
2017-11-01T07:59:39.360Z,91.29
2017-11-01T08:02:07.645Z,90.45
2017-11-01T08:04:35.916Z,90.33
2017-11-01T08:07:04.199Z,90.20
2017-11-01T08:09:32.476Z,90.06
2017-11-01T08:12:00.756Z,89.89
2017-11-01T08:14:29.031Z,88.84
2017-11-01T08:16:57.308Z,88.36
2017-11-01T08:19:25.595Z,88.99
2017-11-01T08:21:53.893Z,89.87
2017-11-01T08:24:22.186Z,89.34
2017-11-01T08:26:51.240Z,89.88
2017-11-01T08:29:19.548Z,89.21
2017-11-01T08:31:48.600Z,88.62
2017-11-01T08:34:16.943Z,89.46
2017-11-01T08:36:45.228Z,90.10
2017-11-01T08:39:13.516Z,89.62
2017-11-01T08:41:41.800Z,89.93
2017-11-01T08:44:10.120Z,90.00
2017-11-01T08:46:38.409Z,89.27
2017-11-01T08:49:06.696Z,89.08
2017-11-01T08:51:34.981Z,88.69
2017-11-01T08:54:03.655Z,88.71
2017-11-01T08:56:31.958Z,88.69
2017-11-01T08:59:00.227Z,89.82
2017-11-01T09:01:29.201Z,89.55
2017-11-01T09:03:57.500Z,89.65
2017-11-01T09:06:25.785Z,89.95
2017-11-01T09:08:54.052Z,90.45
2017-11-01T09:11:22.323Z,90.33
2017-11-01T09:13:51.350Z,90.37
2017-11-01T09:16:19.615Z,90.89
2017-11-01T09:18:47.906Z,91.10
2017-11-01T09:21:16.193Z,91.59
2017-11-01T09:23:44.496Z,90.78
2017-11-01T09:26:12.776Z,90.53
2017-11-01T09:28:41.080Z,90.39
2017-11-01T09:31:09.362Z,89.72
2017-11-01T09:33:37.645Z,88.65
2017-11-01T09:36:05.925Z,89.74
2017-11-01T09:38:34.205Z,89.45
2017-11-01T09:41:02.480Z,88.73
2017-11-01T09:43:30.767Z,89.23
2017-11-01T09:45:59.048Z,89.36
2017-11-01T09:48:27.338Z,90.21
2017-11-01T09:50:55.623Z,90.08
2017-11-01T09:53:23.904Z,90.19
2017-11-01T09:55:52.964Z,90.37
2017-11-01T09:58:21.253Z,89.26
2017-11-01T10:00:49.545Z,89.60
2017-11-01T10:03:18.754Z,89.19
2017-11-01T10:05:47.032Z,88.77
2017-11-01T10:08:16.083Z,88.63
2017-11-01T10:10:44.379Z,88.26
2017-11-01T10:13:12.665Z,88.25
2017-11-01T10:15:40.974Z,88.88
2017-11-01T10:18:09.259Z,88.73
2017-11-01T10:20:37.552Z,87.71
2017-11-01T10:23:05.844Z,88.10
2017-11-01T10:25:34.128Z,88.77
2017-11-01T10:28:02.409Z,88.24
2017-11-01T10:30:30.702Z,88.31
2017-11-01T10:32:59.765Z,89.81
2017-11-01T10:35:28.057Z,90.18
2017-11-01T10:37:56.356Z,89.35
2017-11-01T10:40:24.636Z,88.61
2017-11-01T10:42:52.924Z,88.02
2017-11-01T10:45:21.219Z,87.81
2017-11-01T10:47:49.510Z,87.41
2017-11-01T10:50:17.802Z,87.75
2017-11-01T10:52:46.100Z,86.88
2017-11-01T10:55:14.383Z,86.70
2017-11-01T10:57:43.450Z,87.30
2017-11-01T11:00:11.802Z,87.18
2017-11-01T11:02:40.924Z,87.70
2017-11-01T11:05:10.058Z,87.54
2017-11-01T11:07:39.345Z,86.96
2017-11-01T11:10:09.360Z,86.95
2017-11-01T11:12:37.688Z,86.72
2017-11-01T11:15:06.210Z,84.83
2017-11-01T11:17:34.649Z,84.22
2017-11-01T11:20:02.944Z,83.49
2017-11-01T11:22:31.533Z,81.79
2017-11-01T11:24:59.837Z,80.70
2017-11-01T11:27:28.120Z,81.00
2017-11-01T11:29:57.174Z,80.85
2017-11-01T11:32:25.469Z,80.80
2017-11-01T11:34:53.750Z,81.13
2017-11-01T11:37:22.050Z,82.21
2017-11-01T11:39:50.356Z,82.70
2017-11-01T11:42:18.641Z,80.13
2017-11-01T11:44:46.928Z,79.30
2017-11-01T11:47:15.204Z,79.25
2017-11-01T11:49:43.481Z,79.30
2017-11-01T11:52:11.747Z,81.25
2017-11-01T11:54:40.019Z,81.10
2017-11-01T11:57:08.308Z,79.85
2017-11-01T11:59:36.586Z,79.66
2017-11-01T12:02:04.875Z,80.03
2017-11-01T12:04:33.157Z,76.88
2017-11-01T12:07:01.445Z,77.22
2017-11-01T12:09:29.732Z,75.85
2017-11-01T12:11:58.029Z,75.08
2017-11-01T12:14:27.161Z,73.80
2017-11-01T12:16:55.496Z,73.29
2017-11-01T12:19:23.899Z,73.91
2017-11-01T12:21:52.213Z,74.26
2017-11-01T12:24:20.550Z,73.78
2017-11-01T12:26:48.885Z,73.14
2017-11-01T12:29:17.209Z,74.48
2017-11-01T12:31:45.490Z,72.65
2017-11-01T12:34:13.797Z,71.52
2017-11-01T12:36:42.635Z,71.38
2017-11-01T12:39:10.922Z,69.61
2017-11-01T12:41:39.213Z,70.72
2017-11-01T12:44:08.248Z,71.24
2017-11-01T12:46:36.551Z,73.09
2017-11-01T12:49:05.605Z,72.58
2017-11-01T12:51:33.892Z,72.58
2017-11-01T12:54:02.197Z,72.76
2017-11-01T12:56:31.248Z,71.97
2017-11-01T12:58:59.545Z,71.16
2017-11-01T13:01:27.844Z,72.50
2017-11-01T13:03:56.140Z,71.59
2017-11-01T13:06:24.432Z,70.13
2017-11-01T13:08:52.710Z,70.52
2017-11-01T13:11:20.997Z,70.82
2017-11-01T13:13:49.296Z,70.29
2017-11-01T13:16:18.580Z,70.23
2017-11-01T13:18:46.860Z,69.65
2017-11-01T13:21:15.159Z,68.84
2017-11-01T13:23:43.451Z,69.32
2017-11-01T13:26:12.506Z,67.28
2017-11-01T13:28:41.092Z,66.73
2017-11-01T13:31:09.366Z,67.99
2017-11-01T13:33:37.659Z,69.07
2017-11-01T13:36:05.966Z,67.05
2017-11-01T13:38:35.026Z,64.90
2017-11-01T13:41:03.326Z,63.81
2017-11-01T13:43:32.364Z,63.99
2017-11-01T13:46:00.701Z,63.66
2017-11-01T13:48:29.012Z,62.68
2017-11-01T13:50:57.340Z,63.50
2017-11-01T13:53:25.625Z,62.39
2017-11-01T13:55:53.912Z,63.21
2017-11-01T13:58:22.965Z,63.26
2017-11-01T14:00:51.267Z,62.85
2017-11-01T14:03:20.331Z,62.69
2017-11-01T14:05:48.638Z,61.33
2017-11-01T14:08:17.739Z,61.46
2017-11-01T14:10:46.053Z,61.18
2017-11-01T14:13:14.332Z,61.65
2017-11-01T14:15:42.629Z,62.44
2017-11-01T14:18:10.917Z,62.68
2017-11-01T14:20:39.254Z,63.22
2017-11-01T14:23:07.537Z,61.32
2017-11-01T14:25:36.593Z,59.09
2017-11-01T14:28:05.640Z,57.43
2017-11-01T14:30:33.932Z,57.88
2017-11-01T14:33:02.220Z,57.26
2017-11-01T14:35:30.521Z,58.78
2017-11-01T14:37:59.559Z,58.22
2017-11-01T14:40:27.849Z,61.56
2017-11-01T14:42:56.119Z,64.21
2017-11-01T14:45:24.390Z,67.10
2017-11-01T14:47:52.691Z,67.28
2017-11-01T14:50:20.967Z,67.33
2017-11-01T14:52:49.238Z,68.87
2017-11-01T14:55:17.538Z,70.76
2017-11-01T14:57:45.823Z,71.31
2017-11-01T15:00:14.885Z,69.88
2017-11-01T15:02:43.192Z,69.98
2017-11-01T15:05:12.240Z,70.04
2017-11-01T15:07:40.528Z,70.24
2017-11-01T15:10:09.617Z,70.05
2017-11-01T15:12:37.905Z,70.93
2017-11-01T15:15:10.955Z,71.24
2017-11-01T15:17:43.860Z,71.90
2017-11-01T15:20:13.665Z,72.07
2017-11-01T15:22:42.729Z,72.12
2017-11-01T15:25:13.948Z,73.33
2017-11-01T15:27:42.260Z,73.57
2017-11-01T15:30:10.548Z,74.01
2017-11-01T15:32:38.843Z,74.01
2017-11-01T15:35:07.138Z,74.61
2017-11-01T15:37:35.416Z,75.34
2017-11-01T15:40:03.705Z,77.06
2017-11-01T15:42:31.994Z,77.48
2017-11-01T15:45:01.057Z,77.54
2017-11-01T15:47:29.378Z,77.89
2017-11-01T15:49:59.005Z,78.49
2017-11-01T15:52:27.325Z,78.53
2017-11-01T15:54:55.606Z,78.90
2017-11-01T15:57:23.893Z,80.02
2017-11-01T15:59:52.191Z,80.44
2017-11-01T16:02:21.248Z,80.40
2017-11-01T16:04:49.533Z,80.17
2017-11-01T16:07:17.833Z,80.18
2017-11-01T16:09:46.876Z,80.21
2017-11-01T16:12:15.182Z,80.83
2017-11-01T16:14:43.485Z,80.50
2017-11-01T16:17:12.599Z,80.53
2017-11-01T16:19:40.886Z,80.61
2017-11-01T16:22:09.168Z,80.36
2017-11-01T16:24:37.448Z,80.03
2017-11-01T16:27:05.740Z,79.52
2017-11-01T16:29:34.027Z,80.12
2017-11-01T16:32:02.939Z,79.60
2017-11-01T16:34:31.380Z,79.42
2017-11-01T16:36:59.668Z,79.53
2017-11-01T16:39:27.976Z,80.10
2017-11-01T16:41:56.276Z,80.56
2017-11-01T16:44:24.577Z,81.79
2017-11-01T16:46:52.856Z,81.82
2017-11-01T16:49:21.149Z,82.53
2017-11-01T16:51:49.434Z,82.37
2017-11-01T16:54:17.712Z,81.79
2017-11-01T16:56:46.008Z,81.78
2017-11-01T16:59:14.296Z,81.87
2017-11-01T17:01:42.583Z,81.90
2017-11-01T17:04:10.875Z,82.05
2017-11-01T17:06:39.186Z,82.17
2017-11-01T17:09:07.494Z,81.97
2017-11-01T17:11:36.556Z,82.01
2017-11-01T17:14:04.853Z,81.85
2017-11-01T17:16:33.174Z,81.42
2017-11-01T17:19:01.521Z,81.61
2017-11-01T17:21:29.835Z,81.60
2017-11-01T17:23:58.110Z,81.70
2017-11-01T17:26:26.400Z,81.81
2017-11-01T17:28:54.712Z,81.84
2017-11-01T17:31:23.003Z,81.95
2017-11-01T17:33:51.292Z,82.05
2017-11-01T17:36:19.600Z,82.28
2017-11-01T17:38:47.890Z,82.77
2017-11-01T17:41:16.204Z,82.97
2017-11-01T17:43:45.282Z,82.88
2017-11-01T17:46:13.588Z,82.89
2017-11-01T17:48:41.906Z,83.64
2017-11-01T17:51:10.496Z,83.24
2017-11-01T17:53:38.883Z,83.20
2017-11-01T17:56:07.180Z,83.04
2017-11-01T17:58:35.497Z,83.32
2017-11-01T18:01:03.799Z,84.04
2017-11-01T18:03:32.173Z,84.11
2017-11-01T18:06:00.524Z,83.81
2017-11-01T18:08:29.396Z,83.52
2017-11-01T18:10:58.554Z,83.41
2017-11-01T18:13:26.871Z,83.50
2017-11-01T18:15:55.962Z,83.22
2017-11-01T18:18:24.478Z,85.28
2017-11-01T18:20:53.890Z,84.94
2017-11-01T18:23:22.248Z,84.28
2017-11-01T18:25:50.680Z,84.43
2017-11-01T18:28:19.304Z,84.05
2017-11-01T18:30:47.730Z,84.72
2017-11-01T18:33:16.164Z,84.24
2017-11-01T18:35:44.514Z,84.68
2017-11-01T18:38:12.845Z,84.54
2017-11-01T18:40:41.303Z,84.23
2017-11-01T18:43:09.864Z,84.42
2017-11-01T18:45:38.614Z,84.71
2017-11-01T18:48:07.871Z,84.65
2017-11-01T18:50:37.577Z,85.72
2017-11-01T18:53:07.052Z,85.73
2017-11-01T18:55:36.771Z,85.76
2017-11-01T18:58:06.235Z,85.47
2017-11-01T19:00:36.747Z,84.98
2017-11-01T19:03:07.368Z,84.85
2017-11-01T19:05:37.868Z,84.63
2017-11-01T19:08:07.684Z,84.48
2017-11-01T19:10:37.415Z,84.64
2017-11-01T19:13:07.890Z,84.74
2017-11-01T19:15:37.992Z,84.78
2017-11-01T19:18:07.831Z,85.40
2017-11-01T19:20:37.566Z,85.69
2017-11-01T19:23:07.400Z,85.37
2017-11-01T19:25:37.847Z,87.13
2017-11-01T19:28:07.717Z,86.62
2017-11-01T19:30:37.666Z,86.26
2017-11-01T19:33:07.607Z,86.20
2017-11-01T19:35:37.434Z,86.01
2017-11-01T19:38:07.273Z,85.76
2017-11-01T19:40:37.102Z,86.17
2017-11-01T19:43:08.630Z,86.31
2017-11-01T19:45:38.429Z,86.41
2017-11-01T19:48:08.562Z,86.76
2017-11-01T19:50:38.541Z,86.81
2017-11-01T19:53:08.390Z,86.65
2017-11-01T19:55:38.469Z,86.90
2017-11-01T19:58:08.451Z,87.60
2017-11-01T20:00:39.134Z,88.14
2017-11-01T20:03:09.165Z,88.87
2017-11-01T20:05:38.998Z,88.46
2017-11-01T20:08:08.885Z,88.35
2017-11-01T20:10:38.914Z,88.16
2017-11-01T20:13:08.821Z,88.24
2017-11-01T20:15:38.815Z,88.24
2017-11-01T20:18:08.738Z,88.30
2017-11-01T20:20:38.524Z,88.40
2017-11-01T20:23:08.397Z,88.62
2017-11-01T20:25:39.656Z,89.27
2017-11-01T20:28:10.239Z,88.81
2017-11-01T20:30:40.224Z,88.92
2017-11-01T20:33:11.010Z,88.50
2017-11-01T20:35:40.915Z,88.23
2017-11-01T20:38:11.303Z,88.06
2017-11-01T20:40:41.999Z,88.08
2017-11-01T20:43:11.885Z,87.94
2017-11-01T20:45:42.079Z,87.91
2017-11-01T20:48:11.897Z,87.94
2017-11-01T20:50:41.701Z,87.99
2017-11-01T20:53:11.582Z,87.83
2017-11-01T20:55:41.625Z,87.71
2017-11-01T20:58:11.443Z,88.40
2017-11-01T21:00:41.244Z,88.38
2017-11-01T21:03:11.123Z,88.25
2017-11-01T21:05:42.507Z,88.35
2017-11-01T21:08:12.436Z,88.65
2017-11-01T21:10:42.050Z,89.18
2017-11-01T21:13:11.827Z,89.12
2017-11-01T21:15:41.968Z,88.68
2017-11-01T21:18:12.579Z,88.52
2017-11-01T21:20:42.416Z,88.06
2017-11-01T21:23:12.077Z,87.81
2017-11-01T21:25:41.828Z,87.17
2017-11-01T21:28:12.456Z,87.23
2017-11-01T21:30:42.218Z,87.36
2017-11-01T21:33:11.868Z,87.22
2017-11-01T21:35:42.419Z,87.93
2017-11-01T21:38:12.058Z,88.79
2017-11-01T21:40:41.832Z,88.29
2017-11-01T21:43:11.465Z,88.06
2017-11-01T21:45:41.113Z,87.98
2017-11-01T21:48:10.444Z,87.62
2017-11-01T21:50:40.394Z,87.74
2017-11-01T21:53:08.814Z,87.66
2017-11-01T21:55:37.938Z,87.55
2017-11-01T21:58:06.249Z,87.30
2017-11-01T22:00:34.532Z,87.32
2017-11-01T22:03:02.812Z,87.41
2017-11-01T22:05:31.138Z,87.41
2017-11-01T22:07:59.431Z,87.81
2017-11-01T22:10:27.724Z,87.81
2017-11-01T22:12:56.019Z,87.74
2017-11-01T22:15:24.317Z,88.05
2017-11-01T22:17:53.241Z,87.77
2017-11-01T22:20:21.511Z,87.88
2017-11-01T22:22:50.483Z,87.53
2017-11-01T22:25:18.760Z,87.54
2017-11-01T22:27:47.026Z,87.42
2017-11-01T22:30:16.076Z,87.33
2017-11-01T22:32:44.362Z,87.30
2017-11-01T22:35:12.650Z,87.73
2017-11-01T22:37:40.933Z,87.97
2017-11-01T22:40:10.472Z,89.26
2017-11-01T22:42:38.761Z,89.79
2017-11-01T22:45:07.041Z,90.61
2017-11-01T22:47:35.346Z,91.27
2017-11-01T22:50:03.653Z,91.36
2017-11-01T22:52:31.942Z,92.10
2017-11-01T22:55:00.219Z,91.30
2017-11-01T22:57:29.162Z,90.58
2017-11-01T22:59:57.584Z,90.79
2017-11-01T23:02:25.909Z,89.97
2017-11-01T23:04:54.285Z,90.48
2017-11-01T23:07:22.579Z,89.73
2017-11-01T23:09:50.876Z,89.69
2017-11-01T23:12:19.132Z,89.76
2017-11-01T23:14:47.402Z,90.08
2017-11-01T23:17:15.681Z,90.56
2017-11-01T23:19:43.965Z,90.35
2017-11-01T23:22:12.264Z,90.15
2017-11-01T23:24:40.567Z,90.25
2017-11-01T23:27:08.881Z,90.39
2017-11-01T23:29:37.170Z,90.38
2017-11-01T23:32:05.463Z,90.49
2017-11-01T23:34:33.824Z,90.22
2017-11-01T23:37:02.310Z,90.16
2017-11-01T23:39:30.721Z,90.76
2017-11-01T23:41:59.340Z,90.82
2017-11-01T23:44:27.734Z,90.90
2017-11-01T23:46:56.008Z,91.17
2017-11-01T23:49:24.283Z,91.45
2017-11-01T23:51:52.568Z,91.78
2017-11-01T23:54:20.868Z,91.49
2017-11-01T23:56:49.164Z,91.15
2017-11-01T23:59:17.441Z,90.60
